sensor_id;sensor_type;location;lat;lon;timestamp;pressure;altitude;pressure_sealevel;temperature
32039;BMP280;18549;42.286;22.688;2024-01-25T00:00:37;96263.03;;;5.34
32039;BMP280;18549;42.286;22.688;2024-01-25T00:03:06;96252.50;;;5.30
32039;BMP280;18549;42.286;22.688;2024-01-25T00:05:37;96238.63;;;5.29
32039;BMP280;18549;42.286;22.688;2024-01-25T00:08:04;96232.69;;;5.35
32039;BMP280;18549;42.286;22.688;2024-01-25T00:10:35;96244.06;;;5.37
32039;BMP280;18549;42.286;22.688;2024-01-25T00:13:01;96249.75;;;5.39
32039;BMP280;18549;42.286;22.688;2024-01-25T00:15:46;96256.09;;;5.45
32039;BMP280;18549;42.286;22.688;2024-01-25T00:18:21;96251.16;;;5.46
32039;BMP280;18549;42.286;22.688;2024-01-25T00:20:49;96253.66;;;5.45
32039;BMP280;18549;42.286;22.688;2024-01-25T00:23:17;96264.22;;;5.47
32039;BMP280;18549;42.286;22.688;2024-01-25T00:25:43;96273.16;;;5.49
32039;BMP280;18549;42.286;22.688;2024-01-25T00:28:11;96282.41;;;5.43
32039;BMP280;18549;42.286;22.688;2024-01-25T00:30:38;96285.97;;;5.34
32039;BMP280;18549;42.286;22.688;2024-01-25T00:33:08;96279.72;;;5.24
32039;BMP280;18549;42.286;22.688;2024-01-25T00:35:36;96283.78;;;5.01
32039;BMP280;18549;42.286;22.688;2024-01-25T00:38:07;96278.69;;;4.82
32039;BMP280;18549;42.286;22.688;2024-01-25T00:40:36;96260.09;;;4.75
32039;BMP280;18549;42.286;22.688;2024-01-25T00:43:04;96251.66;;;4.56
32039;BMP280;18549;42.286;22.688;2024-01-25T00:45:33;96260.91;;;4.48
32039;BMP280;18549;42.286;22.688;2024-01-25T00:48:02;96255.59;;;4.36
32039;BMP280;18549;42.286;22.688;2024-01-25T00:50:38;96257.75;;;4.45
32039;BMP280;18549;42.286;22.688;2024-01-25T00:53:05;96241.63;;;4.63
32039;BMP280;18549;42.286;22.688;2024-01-25T00:55:37;96251.00;;;4.77
32039;BMP280;18549;42.286;22.688;2024-01-25T00:58:07;96258.16;;;4.84
32039;BMP280;18549;42.286;22.688;2024-01-25T01:00:36;96250.69;;;4.87
32039;BMP280;18549;42.286;22.688;2024-01-25T01:03:12;96244.09;;;4.88
32039;BMP280;18549;42.286;22.688;2024-01-25T01:05:41;96231.41;;;4.75
32039;BMP280;18549;42.286;22.688;2024-01-25T01:08:18;96248.00;;;4.69
32039;BMP280;18549;42.286;22.688;2024-01-25T01:10:48;96233.00;;;4.76
32039;BMP280;18549;42.286;22.688;2024-01-25T01:13:16;96224.72;;;4.80
32039;BMP280;18549;42.286;22.688;2024-01-25T01:15:44;96229.50;;;4.83
32039;BMP280;18549;42.286;22.688;2024-01-25T01:18:12;96232.38;;;4.71
32039;BMP280;18549;42.286;22.688;2024-01-25T01:20:43;96249.28;;;4.27
32039;BMP280;18549;42.286;22.688;2024-01-25T01:23:11;96249.84;;;4.35
32039;BMP280;18549;42.286;22.688;2024-01-25T01:25:39;96241.31;;;4.47
32039;BMP280;18549;42.286;22.688;2024-01-25T01:28:08;96236.47;;;4.45
32039;BMP280;18549;42.286;22.688;2024-01-25T01:30:35;96224.84;;;4.25
32039;BMP280;18549;42.286;22.688;2024-01-25T01:33:07;96244.16;;;4.35
32039;BMP280;18549;42.286;22.688;2024-01-25T01:35:37;96242.19;;;4.46
32039;BMP280;18549;42.286;22.688;2024-01-25T01:38:09;96239.25;;;4.60
32039;BMP280;18549;42.286;22.688;2024-01-25T01:40:35;96247.09;;;4.71
32039;BMP280;18549;42.286;22.688;2024-01-25T01:43:05;96250.31;;;4.73
32039;BMP280;18549;42.286;22.688;2024-01-25T01:45:34;96235.37;;;4.79
32039;BMP280;18549;42.286;22.688;2024-01-25T01:48:04;96227.97;;;4.81
32039;BMP280;18549;42.286;22.688;2024-01-25T01:50:31;96239.44;;;4.80
32039;BMP280;18549;42.286;22.688;2024-01-25T01:53:02;96237.75;;;4.82
32039;BMP280;18549;42.286;22.688;2024-01-25T01:55:36;96233.50;;;4.87
32039;BMP280;18549;42.286;22.688;2024-01-25T01:58:06;96221.16;;;4.89
32039;BMP280;18549;42.286;22.688;2024-01-25T02:00:37;96220.31;;;4.90
32039;BMP280;18549;42.286;22.688;2024-01-25T02:03:06;96206.44;;;4.89
32039;BMP280;18549;42.286;22.688;2024-01-25T02:05:34;96219.69;;;4.83
32039;BMP280;18549;42.286;22.688;2024-01-25T02:08:05;96226.38;;;4.80
32039;BMP280;18549;42.286;22.688;2024-01-25T02:10:36;96214.03;;;4.81
32039;BMP280;18549;42.286;22.688;2024-01-25T02:13:03;96216.47;;;4.81
32039;BMP280;18549;42.286;22.688;2024-01-25T02:15:30;96210.72;;;4.82
32039;BMP280;18549;42.286;22.688;2024-01-25T02:17:59;96227.13;;;4.82
32039;BMP280;18549;42.286;22.688;2024-01-25T02:20:27;96225.34;;;4.85
32039;BMP280;18549;42.286;22.688;2024-01-25T02:22:58;96218.03;;;4.84
32039;BMP280;18549;42.286;22.688;2024-01-25T02:25:29;96214.63;;;4.88
32039;BMP280;18549;42.286;22.688;2024-01-25T02:27:57;96225.19;;;4.91
32039;BMP280;18549;42.286;22.688;2024-01-25T02:30:26;96218.66;;;4.90
32039;BMP280;18549;42.286;22.688;2024-01-25T02:32:53;96221.84;;;4.92
32039;BMP280;18549;42.286;22.688;2024-01-25T02:35:24;96213.53;;;4.96
32039;BMP280;18549;42.286;22.688;2024-01-25T02:37:55;96202.09;;;4.95
32039;BMP280;18549;42.286;22.688;2024-01-25T02:40:24;96193.91;;;4.96
32039;BMP280;18549;42.286;22.688;2024-01-25T02:42:51;96197.19;;;4.95
32039;BMP280;18549;42.286;22.688;2024-01-25T02:45:19;96196.47;;;4.93
32039;BMP280;18549;42.286;22.688;2024-01-25T02:47:50;96173.47;;;4.94
32039;BMP280;18549;42.286;22.688;2024-01-25T02:50:32;96164.47;;;4.94
32039;BMP280;18549;42.286;22.688;2024-01-25T02:53:00;96175.06;;;4.95
32039;BMP280;18549;42.286;22.688;2024-01-25T02:55:33;96175.84;;;4.97
32039;BMP280;18549;42.286;22.688;2024-01-25T02:58:01;96168.41;;;4.98
32039;BMP280;18549;42.286;22.688;2024-01-25T03:00:29;96170.91;;;4.97
32039;BMP280;18549;42.286;22.688;2024-01-25T03:02:57;96159.66;;;4.92
32039;BMP280;18549;42.286;22.688;2024-01-25T03:05:27;96165.31;;;4.93
32039;BMP280;18549;42.286;22.688;2024-01-25T03:07:55;96163.66;;;4.94
32039;BMP280;18549;42.286;22.688;2024-01-25T03:10:22;96157.03;;;4.96
32039;BMP280;18549;42.286;22.688;2024-01-25T03:12:53;96159.44;;;4.97
32039;BMP280;18549;42.286;22.688;2024-01-25T03:15:22;96170.84;;;5.00
32039;BMP280;18549;42.286;22.688;2024-01-25T03:17:51;96191.28;;;5.00
32039;BMP280;18549;42.286;22.688;2024-01-25T03:20:18;96191.22;;;5.02
32039;BMP280;18549;42.286;22.688;2024-01-25T03:22:45;96182.25;;;5.01
32039;BMP280;18549;42.286;22.688;2024-01-25T03:25:12;96174.09;;;5.00
32039;BMP280;18549;42.286;22.688;2024-01-25T03:27:39;96168.38;;;5.00
32039;BMP280;18549;42.286;22.688;2024-01-25T03:30:10;96172.44;;;5.01
32039;BMP280;18549;42.286;22.688;2024-01-25T03:32:37;96157.81;;;4.98
32039;BMP280;18549;42.286;22.688;2024-01-25T03:35:08;96161.72;;;5.02
32039;BMP280;18549;42.286;22.688;2024-01-25T03:37:37;96162.50;;;5.04
32039;BMP280;18549;42.286;22.688;2024-01-25T03:40:07;96157.53;;;5.05
32039;BMP280;18549;42.286;22.688;2024-01-25T03:42:35;96148.56;;;5.04
32039;BMP280;18549;42.286;22.688;2024-01-25T03:45:07;96151.91;;;5.02
32039;BMP280;18549;42.286;22.688;2024-01-25T03:47:35;96159.25;;;5.03
32039;BMP280;18549;42.286;22.688;2024-01-25T03:50:06;96172.31;;;5.04
32039;BMP280;18549;42.286;22.688;2024-01-25T03:52:35;96149.56;;;4.99
32039;BMP280;18549;42.286;22.688;2024-01-25T03:55:05;96154.78;;;4.90
32039;BMP280;18549;42.286;22.688;2024-01-25T03:57:37;96157.03;;;4.96
32039;BMP280;18549;42.286;22.688;2024-01-25T04:00:08;96154.47;;;4.99
32039;BMP280;18549;42.286;22.688;2024-01-25T04:02:39;96142.94;;;5.01
32039;BMP280;18549;42.286;22.688;2024-01-25T04:05:14;96134.03;;;4.98
32039;BMP280;18549;42.286;22.688;2024-01-25T04:07:42;96123.41;;;4.98
32039;BMP280;18549;42.286;22.688;2024-01-25T04:10:16;96103.28;;;4.89
32039;BMP280;18549;42.286;22.688;2024-01-25T04:12:47;96108.84;;;4.92
32039;BMP280;18549;42.286;22.688;2024-01-25T04:15:15;96109.66;;;4.92
32039;BMP280;18549;42.286;22.688;2024-01-25T04:17:44;96102.25;;;4.94
32039;BMP280;18549;42.286;22.688;2024-01-25T04:20:11;96103.00;;;4.96
32039;BMP280;18549;42.286;22.688;2024-01-25T04:22:38;96108.81;;;4.93
32039;BMP280;18549;42.286;22.688;2024-01-25T04:25:05;96123.50;;;4.95
32039;BMP280;18549;42.286;22.688;2024-01-25T04:27:34;96129.94;;;4.97
32039;BMP280;18549;42.286;22.688;2024-01-25T04:30:05;96130.06;;;4.94
32039;BMP280;18549;42.286;22.688;2024-01-25T04:32:42;96128.63;;;4.89
32039;BMP280;18549;42.286;22.688;2024-01-25T04:35:13;96122.97;;;4.87
32039;BMP280;18549;42.286;22.688;2024-01-25T04:37:42;96132.03;;;4.85
32039;BMP280;18549;42.286;22.688;2024-01-25T04:40:10;96138.56;;;4.86
32039;BMP280;18549;42.286;22.688;2024-01-25T04:42:38;96144.28;;;4.87
32039;BMP280;18549;42.286;22.688;2024-01-25T04:45:09;96139.41;;;4.85
32039;BMP280;18549;42.286;22.688;2024-01-25T04:47:39;96144.69;;;4.75
32039;BMP280;18549;42.286;22.688;2024-01-25T04:50:14;96141.34;;;4.76
32039;BMP280;18549;42.286;22.688;2024-01-25T04:52:43;96133.38;;;4.69
32039;BMP280;18549;42.286;22.688;2024-01-25T04:55:10;96126.22;;;4.63
32039;BMP280;18549;42.286;22.688;2024-01-25T04:57:40;96100.81;;;4.64
32039;BMP280;18549;42.286;22.688;2024-01-25T05:00:16;96084.34;;;4.44
32039;BMP280;18549;42.286;22.688;2024-01-25T05:02:45;96102.28;;;4.46
32039;BMP280;18549;42.286;22.688;2024-01-25T05:05:14;96096.84;;;4.60
32039;BMP280;18549;42.286;22.688;2024-01-25T05:07:42;96108.06;;;4.67
32039;BMP280;18549;42.286;22.688;2024-01-25T05:10:10;96111.69;;;4.58
32039;BMP280;18549;42.286;22.688;2024-01-25T05:12:38;96119.25;;;4.52
32039;BMP280;18549;42.286;22.688;2024-01-25T05:15:07;96147.56;;;4.61
32039;BMP280;18549;42.286;22.688;2024-01-25T05:17:35;96139.50;;;4.58
32039;BMP280;18549;42.286;22.688;2024-01-25T05:20:05;96150.22;;;4.56
32039;BMP280;18549;42.286;22.688;2024-01-25T05:22:33;96146.06;;;4.58
32039;BMP280;18549;42.286;22.688;2024-01-25T05:25:06;96140.53;;;4.51
32039;BMP280;18549;42.286;22.688;2024-01-25T05:27:34;96134.09;;;4.47
32039;BMP280;18549;42.286;22.688;2024-01-25T05:30:03;96126.59;;;4.52
32039;BMP280;18549;42.286;22.688;2024-01-25T05:32:31;96111.03;;;4.53
32039;BMP280;18549;42.286;22.688;2024-01-25T05:35:00;96108.47;;;4.56
32039;BMP280;18549;42.286;22.688;2024-01-25T05:37:40;96141.88;;;4.61
32039;BMP280;18549;42.286;22.688;2024-01-25T05:40:07;96125.31;;;4.66
32039;BMP280;18549;42.286;22.688;2024-01-25T05:42:38;96118.25;;;4.57
32039;BMP280;18549;42.286;22.688;2024-01-25T05:45:05;96141.25;;;4.55
32039;BMP280;18549;42.286;22.688;2024-01-25T05:47:34;96166.44;;;4.59
32039;BMP280;18549;42.286;22.688;2024-01-25T05:50:01;96130.38;;;4.61
32039;BMP280;18549;42.286;22.688;2024-01-25T05:52:36;96118.94;;;4.60
32039;BMP280;18549;42.286;22.688;2024-01-25T05:55:04;96123.94;;;4.59
32039;BMP280;18549;42.286;22.688;2024-01-25T05:57:30;96133.53;;;4.65
32039;BMP280;18549;42.286;22.688;2024-01-25T05:59:59;96163.06;;;4.63
32039;BMP280;18549;42.286;22.688;2024-01-25T06:02:27;96154.06;;;4.62
32039;BMP280;18549;42.286;22.688;2024-01-25T06:04:55;96153.09;;;4.68
32039;BMP280;18549;42.286;22.688;2024-01-25T06:07:32;96147.31;;;4.69
32039;BMP280;18549;42.286;22.688;2024-01-25T06:10:00;96157.13;;;4.69
32039;BMP280;18549;42.286;22.688;2024-01-25T06:12:29;96162.31;;;4.61
32039;BMP280;18549;42.286;22.688;2024-01-25T06:14:58;96161.44;;;4.62
32039;BMP280;18549;42.286;22.688;2024-01-25T06:17:27;96162.19;;;4.64
32039;BMP280;18549;42.286;22.688;2024-01-25T06:19:58;96186.84;;;4.61
32039;BMP280;18549;42.286;22.688;2024-01-25T06:22:28;96193.47;;;4.59
32039;BMP280;18549;42.286;22.688;2024-01-25T06:25:04;96216.22;;;4.64
32039;BMP280;18549;42.286;22.688;2024-01-25T06:27:31;96201.38;;;4.67
32039;BMP280;18549;42.286;22.688;2024-01-25T06:30:00;96202.88;;;4.71
32039;BMP280;18549;42.286;22.688;2024-01-25T06:32:32;96198.88;;;4.69
32039;BMP280;18549;42.286;22.688;2024-01-25T06:35:05;96217.38;;;4.79
32039;BMP280;18549;42.286;22.688;2024-01-25T06:37:38;96211.56;;;4.81
32039;BMP280;18549;42.286;22.688;2024-01-25T06:40:07;96221.34;;;4.83
32039;BMP280;18549;42.286;22.688;2024-01-25T06:42:34;96208.16;;;4.85
32039;BMP280;18549;42.286;22.688;2024-01-25T06:45:02;96215.44;;;4.88
32039;BMP280;18549;42.286;22.688;2024-01-25T06:47:32;96203.09;;;4.90
32039;BMP280;18549;42.286;22.688;2024-01-25T06:49:59;96202.22;;;4.92
32039;BMP280;18549;42.286;22.688;2024-01-25T06:52:30;96201.44;;;4.90
32039;BMP280;18549;42.286;22.688;2024-01-25T06:55:16;96195.69;;;4.91
32039;BMP280;18549;42.286;22.688;2024-01-25T06:57:47;96190.28;;;4.82
32039;BMP280;18549;42.286;22.688;2024-01-25T07:00:18;96195.13;;;4.83
32039;BMP280;18549;42.286;22.688;2024-01-25T07:02:54;96174.72;;;4.81
32039;BMP280;18549;42.286;22.688;2024-01-25T07:05:24;96190.97;;;4.85
32039;BMP280;18549;42.286;22.688;2024-01-25T07:07:53;96176.88;;;4.90
32039;BMP280;18549;42.286;22.688;2024-01-25T07:10:21;96178.00;;;4.82
32039;BMP280;18549;42.286;22.688;2024-01-25T07:12:48;96188.63;;;4.82
32039;BMP280;18549;42.286;22.688;2024-01-25T07:15:16;96204.69;;;4.91
32039;BMP280;18549;42.286;22.688;2024-01-25T07:17:55;96211.09;;;4.96
32039;BMP280;18549;42.286;22.688;2024-01-25T07:20:37;96202.44;;;4.86
32039;BMP280;18549;42.286;22.688;2024-01-25T07:23:09;96190.06;;;4.88
32039;BMP280;18549;42.286;22.688;2024-01-25T07:25:39;96191.84;;;4.84
32039;BMP280;18549;42.286;22.688;2024-01-25T07:28:08;96187.75;;;4.83
32039;BMP280;18549;42.286;22.688;2024-01-25T07:30:39;96183.50;;;4.88
32039;BMP280;18549;42.286;22.688;2024-01-25T07:33:09;96191.38;;;4.97
32039;BMP280;18549;42.286;22.688;2024-01-25T07:35:39;96185.59;;;5.00
32039;BMP280;18549;42.286;22.688;2024-01-25T07:38:12;96189.50;;;5.04
32039;BMP280;18549;42.286;22.688;2024-01-25T07:40:53;96194.44;;;5.04
32039;BMP280;18549;42.286;22.688;2024-01-25T07:43:21;96206.53;;;5.10
32039;BMP280;18549;42.286;22.688;2024-01-25T07:45:49;96213.69;;;5.16
32039;BMP280;18549;42.286;22.688;2024-01-25T07:48:20;96195.81;;;5.11
32039;BMP280;18549;42.286;22.688;2024-01-25T07:50:48;96209.28;;;5.01
32039;BMP280;18549;42.286;22.688;2024-01-25T07:53:15;96205.87;;;5.05
32039;BMP280;18549;42.286;22.688;2024-01-25T07:55:47;96204.38;;;5.01
32039;BMP280;18549;42.286;22.688;2024-01-25T07:58:15;96200.84;;;5.08
32039;BMP280;18549;42.286;22.688;2024-01-25T08:00:42;96183.00;;;5.03
32039;BMP280;18549;42.286;22.688;2024-01-25T08:03:11;96175.78;;;4.98
32039;BMP280;18549;42.286;22.688;2024-01-25T08:05:39;96177.19;;;5.05
32039;BMP280;18549;42.286;22.688;2024-01-25T08:08:06;96162.28;;;5.10
32039;BMP280;18549;42.286;22.688;2024-01-25T08:10:34;96178.56;;;5.14
32039;BMP280;18549;42.286;22.688;2024-01-25T08:13:09;96193.16;;;5.18
32039;BMP280;18549;42.286;22.688;2024-01-25T08:15:38;96205.31;;;5.21
32039;BMP280;18549;42.286;22.688;2024-01-25T08:18:06;96206.72;;;5.28
32039;BMP280;18549;42.286;22.688;2024-01-25T08:20:36;96221.88;;;5.16
32039;BMP280;18549;42.286;22.688;2024-01-25T08:23:07;96220.22;;;5.17
32039;BMP280;18549;42.286;22.688;2024-01-25T08:25:36;96203.31;;;5.08
32039;BMP280;18549;42.286;22.688;2024-01-25T08:28:17;96200.16;;;5.04
32039;BMP280;18549;42.286;22.688;2024-01-25T08:30:47;96171.31;;;5.09
32039;BMP280;18549;42.286;22.688;2024-01-25T08:33:16;96171.66;;;4.99
32039;BMP280;18549;42.286;22.688;2024-01-25T08:35:47;96176.59;;;4.99
32039;BMP280;18549;42.286;22.688;2024-01-25T08:38:14;96171.41;;;5.06
32039;BMP280;18549;42.286;22.688;2024-01-25T08:40:41;96190.69;;;5.18
32039;BMP280;18549;42.286;22.688;2024-01-25T08:43:10;96185.53;;;5.24
32039;BMP280;18549;42.286;22.688;2024-01-25T08:45:37;96192.91;;;5.24
32039;BMP280;18549;42.286;22.688;2024-01-25T08:48:06;96198.25;;;5.36
32039;BMP280;18549;42.286;22.688;2024-01-25T08:50:35;96212.66;;;5.45
32039;BMP280;18549;42.286;22.688;2024-01-25T08:53:04;96219.50;;;5.60
32039;BMP280;18549;42.286;22.688;2024-01-25T08:55:31;96228.59;;;5.58
32039;BMP280;18549;42.286;22.688;2024-01-25T08:58:00;96236.78;;;5.58
32039;BMP280;18549;42.286;22.688;2024-01-25T09:00:30;96234.28;;;5.60
32039;BMP280;18549;42.286;22.688;2024-01-25T09:02:59;96211.25;;;5.61
32039;BMP280;18549;42.286;22.688;2024-01-25T09:05:27;96211.38;;;5.58
32039;BMP280;18549;42.286;22.688;2024-01-25T09:07:55;96202.34;;;5.58
32039;BMP280;18549;42.286;22.688;2024-01-25T09:10:41;96182.78;;;5.56
32039;BMP280;18549;42.286;22.688;2024-01-25T09:13:10;96177.16;;;5.52
32039;BMP280;18549;42.286;22.688;2024-01-25T09:15:42;96190.13;;;5.57
32039;BMP280;18549;42.286;22.688;2024-01-25T09:18:11;96212.03;;;5.63
32039;BMP280;18549;42.286;22.688;2024-01-25T09:20:38;96215.97;;;5.67
32039;BMP280;18549;42.286;22.688;2024-01-25T09:23:13;96204.16;;;5.78
32039;BMP280;18549;42.286;22.688;2024-01-25T09:25:45;96211.09;;;5.90
32039;BMP280;18549;42.286;22.688;2024-01-25T09:28:20;96215.38;;;5.85
32039;BMP280;18549;42.286;22.688;2024-01-25T09:30:48;96214.38;;;5.89
32039;BMP280;18549;42.286;22.688;2024-01-25T09:33:19;96217.56;;;5.92
32039;BMP280;18549;42.286;22.688;2024-01-25T09:35:50;96208.62;;;5.90
32039;BMP280;18549;42.286;22.688;2024-01-25T09:38:17;96205.41;;;5.88
32039;BMP280;18549;42.286;22.688;2024-01-25T09:40:44;96206.31;;;5.85
32039;BMP280;18549;42.286;22.688;2024-01-25T09:43:12;96206.91;;;5.92
32039;BMP280;18549;42.286;22.688;2024-01-25T09:45:40;96199.47;;;5.93
32039;BMP280;18549;42.286;22.688;2024-01-25T09:48:14;96193.78;;;5.91
32039;BMP280;18549;42.286;22.688;2024-01-25T09:50:41;96186.25;;;5.95
32039;BMP280;18549;42.286;22.688;2024-01-25T09:53:13;96184.03;;;5.90
32039;BMP280;18549;42.286;22.688;2024-01-25T09:55:48;96171.75;;;5.88
32039;BMP280;18549;42.286;22.688;2024-01-25T09:58:21;96168.34;;;5.92
32039;BMP280;18549;42.286;22.688;2024-01-25T10:00:55;96143.56;;;5.96
32039;BMP280;18549;42.286;22.688;2024-01-25T10:03:23;96131.41;;;5.93
32039;BMP280;18549;42.286;22.688;2024-01-25T10:05:51;96118.78;;;6.01
32039;BMP280;18549;42.286;22.688;2024-01-25T10:08:20;96108.78;;;6.05
32039;BMP280;18549;42.286;22.688;2024-01-25T10:10:50;96102.06;;;6.09
32039;BMP280;18549;42.286;22.688;2024-01-25T10:13:20;96088.66;;;6.16
32039;BMP280;18549;42.286;22.688;2024-01-25T10:15:50;96091.87;;;6.18
32039;BMP280;18549;42.286;22.688;2024-01-25T10:18:29;96103.19;;;6.22
32039;BMP280;18549;42.286;22.688;2024-01-25T10:20:57;96110.53;;;6.23
32039;BMP280;18549;42.286;22.688;2024-01-25T10:23:28;96098.28;;;6.22
32039;BMP280;18549;42.286;22.688;2024-01-25T10:25:57;96108.91;;;6.22
32039;BMP280;18549;42.286;22.688;2024-01-25T10:28:28;96102.50;;;6.18
32039;BMP280;18549;42.286;22.688;2024-01-25T10:31:00;96090.31;;;6.15
32039;BMP280;18549;42.286;22.688;2024-01-25T10:33:40;96103.44;;;6.16
32039;BMP280;18549;42.286;22.688;2024-01-25T10:36:08;96102.19;;;6.06
32039;BMP280;18549;42.286;22.688;2024-01-25T10:38:42;96103.72;;;6.08
32039;BMP280;18549;42.286;22.688;2024-01-25T10:41:13;96094.06;;;6.04
32039;BMP280;18549;42.286;22.688;2024-01-25T10:43:40;96094.84;;;6.04
32039;BMP280;18549;42.286;22.688;2024-01-25T10:46:10;96096.22;;;6.11
32039;BMP280;18549;42.286;22.688;2024-01-25T10:48:39;96104.22;;;6.16
32039;BMP280;18549;42.286;22.688;2024-01-25T10:51:07;96099.22;;;6.19
32039;BMP280;18549;42.286;22.688;2024-01-25T10:53:37;96092.78;;;6.15
32039;BMP280;18549;42.286;22.688;2024-01-25T10:56:20;96093.72;;;6.13
32039;BMP280;18549;42.286;22.688;2024-01-25T10:58:48;96091.91;;;6.16
32039;BMP280;18549;42.286;22.688;2024-01-25T11:01:16;96080.88;;;6.26
32039;BMP280;18549;42.286;22.688;2024-01-25T11:03:48;96084.19;;;6.25
32039;BMP280;18549;42.286;22.688;2024-01-25T11:06:21;96088.06;;;6.30
32039;BMP280;18549;42.286;22.688;2024-01-25T11:08:48;96087.16;;;6.33
32039;BMP280;18549;42.286;22.688;2024-01-25T11:11:19;96083.06;;;6.32
32039;BMP280;18549;42.286;22.688;2024-01-25T11:13:50;96082.22;;;6.33
32039;BMP280;18549;42.286;22.688;2024-01-25T11:16:28;96066.53;;;6.35
32039;BMP280;18549;42.286;22.688;2024-01-25T11:19:00;96067.19;;;6.39
32039;BMP280;18549;42.286;22.688;2024-01-25T11:21:39;96076.81;;;6.45
32039;BMP280;18549;42.286;22.688;2024-01-25T11:24:24;96076.75;;;6.46
32039;BMP280;18549;42.286;22.688;2024-01-25T11:26:55;96070.78;;;6.52
32039;BMP280;18549;42.286;22.688;2024-01-25T11:29:25;96065.63;;;6.57
32039;BMP280;18549;42.286;22.688;2024-01-25T11:31:53;96058.09;;;6.60
32039;BMP280;18549;42.286;22.688;2024-01-25T11:34:22;96056.97;;;6.67
32039;BMP280;18549;42.286;22.688;2024-01-25T11:36:49;96050.00;;;6.77
32039;BMP280;18549;42.286;22.688;2024-01-25T11:39:17;96041.91;;;6.93
32039;BMP280;18549;42.286;22.688;2024-01-25T11:41:45;96043.22;;;7.00
32039;BMP280;18549;42.286;22.688;2024-01-25T11:44:14;96047.78;;;7.09
32039;BMP280;18549;42.286;22.688;2024-01-25T11:46:44;96048.38;;;7.14
32039;BMP280;18549;42.286;22.688;2024-01-25T11:49:15;96056.50;;;7.16
32039;BMP280;18549;42.286;22.688;2024-01-25T11:51:46;96045.78;;;7.17
32039;BMP280;18549;42.286;22.688;2024-01-25T11:54:16;96040.72;;;7.20
32039;BMP280;18549;42.286;22.688;2024-01-25T11:56:44;96034.81;;;7.23
32039;BMP280;18549;42.286;22.688;2024-01-25T11:59:19;96034.81;;;7.23
32039;BMP280;18549;42.286;22.688;2024-01-25T12:01:49;96032.84;;;7.30
32039;BMP280;18549;42.286;22.688;2024-01-25T12:04:19;96026.12;;;7.33
32039;BMP280;18549;42.286;22.688;2024-01-25T12:07:06;96016.84;;;7.38
32039;BMP280;18549;42.286;22.688;2024-01-25T12:09:36;96016.69;;;7.41
32039;BMP280;18549;42.286;22.688;2024-01-25T12:12:05;96015.75;;;7.44
32039;BMP280;18549;42.286;22.688;2024-01-25T12:14:35;96014.81;;;7.46
32039;BMP280;18549;42.286;22.688;2024-01-25T12:17:03;96005.78;;;7.47
32039;BMP280;18549;42.286;22.688;2024-01-25T12:19:31;95997.50;;;7.48
32039;BMP280;18549;42.286;22.688;2024-01-25T12:22:20;95992.56;;;7.48
32039;BMP280;18549;42.286;22.688;2024-01-25T12:24:48;95995.97;;;7.45
32039;BMP280;18549;42.286;22.688;2024-01-25T12:27:19;96005.06;;;7.45
32039;BMP280;18549;42.286;22.688;2024-01-25T12:29:46;96003.53;;;7.42
32039;BMP280;18549;42.286;22.688;2024-01-25T12:32:16;95991.19;;;7.42
32039;BMP280;18549;42.286;22.688;2024-01-25T12:34:56;95989.66;;;7.40
32039;BMP280;18549;42.286;22.688;2024-01-25T12:37:25;95997.28;;;7.35
32039;BMP280;18549;42.286;22.688;2024-01-25T12:39:56;95999.72;;;7.35
32039;BMP280;18549;42.286;22.688;2024-01-25T12:42:24;95995.44;;;7.39
32039;BMP280;18549;42.286;22.688;2024-01-25T12:44:54;95987.25;;;7.38
32039;BMP280;18549;42.286;22.688;2024-01-25T12:47:20;95998.69;;;7.39
32039;BMP280;18549;42.286;22.688;2024-01-25T12:49:48;95993.88;;;7.38
32039;BMP280;18549;42.286;22.688;2024-01-25T12:52:29;95997.28;;;7.35
32039;BMP280;18549;42.286;22.688;2024-01-25T12:55:12;95997.28;;;7.35
32039;BMP280;18549;42.286;22.688;2024-01-25T12:57:40;95980.75;;;7.37
32039;BMP280;18549;42.286;22.688;2024-01-25T13:00:10;95975.81;;;7.37
32039;BMP280;18549;42.286;22.688;2024-01-25T13:02:40;95968.41;;;7.37
32039;BMP280;18549;42.286;22.688;2024-01-25T13:05:10;95968.06;;;7.45
32039;BMP280;18549;42.286;22.688;2024-01-25T13:07:42;95985.03;;;7.51
32039;BMP280;18549;42.286;22.688;2024-01-25T13:10:10;95983.22;;;7.54
32039;BMP280;18549;42.286;22.688;2024-01-25T13:12:49;95972.47;;;7.55
32039;BMP280;18549;42.286;22.688;2024-01-25T13:15:15;95967.00;;;7.67
32039;BMP280;18549;42.286;22.688;2024-01-25T13:17:47;95961.81;;;7.71
32039;BMP280;18549;42.286;22.688;2024-01-25T13:20:15;95947.63;;;7.76
32039;BMP280;18549;42.286;22.688;2024-01-25T13:22:48;95944.50;;;7.73
32039;BMP280;18549;42.286;22.688;2024-01-25T13:25:14;95954.22;;;7.76
32039;BMP280;18549;42.286;22.688;2024-01-25T13:27:41;95954.50;;;7.87
32039;BMP280;18549;42.286;22.688;2024-01-25T13:30:12;95957.34;;;7.96
32039;BMP280;18549;42.286;22.688;2024-01-25T13:32:41;95974.41;;;8.00
32039;BMP280;18549;42.286;22.688;2024-01-25T13:35:12;95961.06;;;8.04
32039;BMP280;18549;42.286;22.688;2024-01-25T13:37:41;95965.75;;;8.10
32039;BMP280;18549;42.286;22.688;2024-01-25T13:40:13;95964.62;;;8.16
32039;BMP280;18549;42.286;22.688;2024-01-25T13:42:40;95957.84;;;8.19
32039;BMP280;18549;42.286;22.688;2024-01-25T13:45:09;95955.38;;;8.19
32039;BMP280;18549;42.286;22.688;2024-01-25T13:47:36;95952.69;;;8.23
32039;BMP280;18549;42.286;22.688;2024-01-25T13:50:07;95958.31;;;8.27
32039;BMP280;18549;42.286;22.688;2024-01-25T13:52:35;95957.97;;;8.33
32039;BMP280;18549;42.286;22.688;2024-01-25T13:55:02;95953.78;;;8.35
32039;BMP280;18549;42.286;22.688;2024-01-25T13:57:31;95956.09;;;8.38
32039;BMP280;18549;42.286;22.688;2024-01-25T13:59:59;95951.16;;;8.38
32039;BMP280;18549;42.286;22.688;2024-01-25T14:02:29;95954.50;;;8.37
32039;BMP280;18549;42.286;22.688;2024-01-25T14:05:01;95944.47;;;8.40
32039;BMP280;18549;42.286;22.688;2024-01-25T14:07:36;95944.47;;;8.40
32039;BMP280;18549;42.286;22.688;2024-01-25T14:10:03;95944.47;;;8.40
32039;BMP280;18549;42.286;22.688;2024-01-25T14:12:36;95945.41;;;8.37
32039;BMP280;18549;42.286;22.688;2024-01-25T14:15:06;95936.34;;;8.38
32039;BMP280;18549;42.286;22.688;2024-01-25T14:17:34;95941.13;;;8.41
32039;BMP280;18549;42.286;22.688;2024-01-25T14:20:03;95946.69;;;8.44
32039;BMP280;18549;42.286;22.688;2024-01-25T14:22:32;95950.12;;;8.42
32039;BMP280;18549;42.286;22.688;2024-01-25T14:25:00;95950.00;;;8.45